Data for 09/02/2009

Time Sea-Level Adjusted Pressure Absolute Pressure Temperature Relative Humidity Dew Point   
(mb) (inHg) (mb) (inHg) (C) (F) (%) (C) (F)
00:05 1022 30.18 852 25.16 17 62.7 56 8.3 47
00:10 1022 30.18 852 25.16 17.3 63.1 56 8.4 47.1
00:15 1022 30.18 851 25.13 17.2 62.9 56 8.4 47.1
00:20 1022 30.18 851 25.13 17.1 62.7 52 7.2 45
00:25 1021 30.15 851 25.13 17.4 63.4 55 8.5 47.3
00:30 1021 30.15 850 25.1 17.6 63.6 50 7 44.6
00:35 1021 30.15 851 25.13 17.7 63.8 53 8.2 46.8
00:40 1021 30.15 851 25.13 16.9 62.3 53 7.4 45.3
00:45 1021 30.15 851 25.13 17.5 63.5 49 6.7 44
00:50 1022 30.18 851 25.13 18 64.4 46 6.5 43.7
00:55 1022 30.18 851 25.13 18.2 64.8 51 8 46.5
01:00 1022 30.18 852 25.16 17.8 64.1 48 6.9 44.4
01:05 1023 30.21 852 25.16 18.4 65 49 7.6 45.7
01:10 1023 30.21 852 25.16 18.1 64.6 51 7.9 46.2
01:15 1023 30.21 852 25.16 17.9 64.1 51 7.6 45.8
01:20 1023 30.21 852 25.16 17.9 64.1 51 7.8 46.1
01:25 1023 30.21 852 25.16 17.9 64.2 51 7.6 45.7
01:30 1023 30.21 852 25.16 18 64.4 51 7.8 46
01:35 1023 30.21 852 25.16 17.8 64.1 53 8.3 47
01:40 1023 30.21 852 25.16 17.1 62.8 56 8.4 47
01:45 1023 30.21 852 25.16 16.9 62.5 55 7.8 46.1
01:50 1023 30.21 852 25.16 17.3 63.1 53 7.8 46.1
01:55 1023 30.21 852 25.16 17.6 63.8 50 7.2 45
02:00 1023 30.21 852 25.16 17.8 64 55 8.7 47.7
02:05 1023 30.21 852 25.16 17.5 63.5 55 8.5 47.4
02:10 1023 30.21 852 25.16 17.6 63.6 50 7.1 44.8
02:15 1023 30.21 852 25.16 17.7 63.9 49 7.1 44.8
02:20 1023 30.21 852 25.16 17.7 63.8 51 7.6 45.7
02:25 1023 30.21 852 25.16 17.3 63.2 52 7.4 45.3
02:30 1023 30.21 852 25.16 17 62.5 52 7.3 45.1
02:35 1023 30.21 852 25.16 17 62.6 52 7.2 44.9
02:40 1023 30.21 852 25.16 17.1 62.7 52 7.1 44.9
02:45 1023 30.21 852 25.16 17 62.7 53 7.6 45.6
02:50 1023 30.21 852 25.16 16.9 62.3 53 7.5 45.4
02:55 1023 30.21 852 25.16 16.7 62 54 7.3 45.2
03:00 1023 30.21 852 25.16 16.5 61.7 56 7.7 45.8
03:05 1023 30.21 852 25.16 16.4 61.4 61 9 48.2
03:10 1023 30.21 853 25.19 16 60.9 58 7.9 46.2
03:15 1023 30.21 853 25.19 15.5 60 58 7.3 45.2
03:20 1023 30.21 853 25.19 15.7 60.2 57 7.3 45.2
03:25 1023 30.21 853 25.19 15.8 60.5 59 8 46.4
03:30 1023 30.21 853 25.19 15.8 60.5 56 7.1 44.8
03:35 1023 30.21 853 25.19 15.6 60 57 7.2 44.9
03:40 1023 30.21 853 25.19 15.6 60 55 6.7 44
03:45 1023 30.21 853 25.19 16 60.7 58 7.7 45.8
03:50 1023 30.21 853 25.19 15.9 60.5 55 6.9 44.4
03:55 1023 30.21 853 25.19 15.8 60.4 54 6.6 43.8
04:00 1023 30.21 853 25.19 15.8 60.5 54 6.5 43.8
04:05 1023 30.21 853 25.19 15.9 60.5 58 7.6 45.8
04:10 1023 30.21 853 25.19 16 60.8 54 6.7 44.1
04:15 1024 30.24 853 25.19 15.5 60 57 7.3 45.1
04:20 1024 30.24 853 25.19 14.9 58.8 60 7.4 45.3
04:25 1024 30.24 853 25.19 14.8 58.7 62 7.7 45.8
04:30 1024 30.24 853 25.19 14.9 58.8 58 6.8 44.3
04:35 1024 30.24 853 25.19 14.6 58.4 59 6.9 44.4
04:40 1024 30.24 853 25.19 14.5 58 59 6.6 44
04:45 1024 30.24 853 25.19 14.6 58.3 59 6.8 44.2
04:50 1024 30.24 853 25.19 14.5 58 59 6.7 44.1
04:55 1024 30.24 853 25.19 14.5 58.1 59 6.6 43.9
05:00 1024 30.24 853 25.19 14.5 58 60 6.8 44.3
05:05 1024 30.24 853 25.19 14.2 57.6 60 6.7 44.1
05:10 1024 30.24 853 25.19 14.4 57.9 58 6.4 43.5
05:15 1024 30.24 853 25.19 14.5 58.2 59 6.6 43.9
05:20 1024 30.24 853 25.19 14.5 58.2 58 6.5 43.7
05:25 1024 30.24 853 25.19 14.6 58.3 58 6.6 43.8
05:30 1024 30.24 853 25.19 14.5 58.1 58 6.4 43.5
05:35 1024 30.24 853 25.19 14.4 58 60 6.7 44.1
05:40 1024 30.24 853 25.19 13.9 57 62 6.7 44.1
05:45 1024 30.24 853 25.19 13.4 56.2 64 6.8 44.2
05:50 1024 30.24 853 25.19 13.2 55.8 64 6.6 43.8
05:55 1024 30.24 853 25.19 13.2 55.7 64 6.6 43.9
06:00 1024 30.24 853 25.19 13.2 55.7 64 6.6 43.8
06:05 1024 30.24 853 25.19 13.3 55.9 63 6.4 43.6
06:10 1024 30.24 853 25.19 13.4 56.1 62 6.3 43.3
06:15 1024 30.24 853 25.19 13.8 56.8 60 6.2 43.1
06:20 1024 30.24 853 25.19 14.1 57.4 60 6.5 43.7
06:25 1024 30.24 853 25.19 13.7 56.6 61 6.4 43.4
06:30 1024 30.24 853 25.19 13.7 56.7 60 6.2 43.2
06:35 1024 30.24 853 25.19 13.7 56.7 62 6.6 43.9
06:40 1024 30.24 853 25.19 13.4 56.1 64 6.7 44
06:45 1024 30.24 853 25.19 12.7 54.8 66 6.5 43.7
06:50 1024 30.24 853 25.19 12.7 54.9 63 6 42.7
06:55 1024 30.24 853 25.19 13.2 55.8 63 6.3 43.4
07:00 1024 30.24 853 25.19 13 55.4 64 6.3 43.4
07:05 1024 30.24 853 25.19 13.2 55.7 61 6 42.7
07:10 1024 30.24 853 25.19 13.7 56.7 60 6.2 43.1
07:15 1024 30.24 853 25.19 13.9 57.1 59 6.1 42.9
07:20 1024 30.24 853 25.19 14.2 57.6 58 6.1 43
07:25 1024 30.24 853 25.19 14.5 58.1 57 6.2 43.1
07:30 1024 30.24 853 25.19 14.5 58.2 58 6.5 43.6
07:35 1024 30.24 853 25.19 14.4 57.8 60 6.7 44
07:40 1024 30.24 853 25.19 14.3 57.8 57 6.1 42.9
07:45 1024 30.24 853 25.19 14.4 57.9 59 6.5 43.7
07:50 1024 30.24 854 25.22 14.1 57.4 60 6.4 43.6
07:55 1024 30.24 854 25.22 14.3 57.7 58 6.3 43.3
08:00 1024 30.24 854 25.22 14.5 58.1 59 6.6 43.8
08:05 1024 30.24 854 25.22 14.8 58.6 58 6.8 44.3
08:10 1025 30.27 854 25.22 15 59 58 6.8 44.2
08:15 1025 30.27 854 25.22 15.5 59.9 56 6.8 44.2
08:20 1025 30.27 854 25.22 15.5 60 56 6.9 44.3
08:25 1025 30.27 854 25.22 15.4 59.8 56 6.8 44.2
08:30 1025 30.27 854 25.22 16 60.8 54 6.6 44
08:35 1025 30.27 854 25.22 16.6 61.8 54 7.2 44.9
08:40 1025 30.27 854 25.22 17.2 62.9 50 6.8 44.3
08:45 1025 30.27 854 25.22 17.5 63.6 50 7.2 44.9
08:50 1025 30.27 854 25.22 17.8 64 49 7 44.5
08:55 1025 30.27 854 25.22 18.2 64.8 48 7.2 45
09:00 1025 30.27 854 25.22 18.8 65.8 47 7.2 45
09:05 1025 30.27 854 25.22 19 66.1 47 7.7 45.8
09:10 1025 30.27 854 25.22 18.9 66 47 7.4 45.4
09:15 1025 30.27 854 25.22 19.7 67.5 44 7.2 44.9
09:20 1025 30.27 854 25.22 20.4 68.7 43 7.4 45.3
09:25 1025 30.27 854 25.22 20.8 69.4 42 7.7 45.8
09:30 1025 30.27 854 25.22 20.9 69.6 41 7.3 45.2
09:35 1025 30.27 854 25.22 21.1 70 40 7.2 45
09:40 1025 30.27 854 25.22 20.5 69 43 7.8 46
09:45 1025 30.27 854 25.22 20.2 68.3 43 7.4 45.3
09:50 1025 30.27 854 25.22 20.7 69.2 43 7.7 45.8
09:55 1025 30.27 854 25.22 21.3 70.3 38 6.5 43.7
10:00 1025 30.27 854 25.22 21.7 71.1 36 6.1 43.1
10:05 1025 30.27 854 25.22 21.9 71.3 38 6.9 44.5
10:10 1025 30.27 854 25.22 21.6 70.9 41 8.1 46.5
10:15 1025 30.27 854 25.22 21.6 70.8 40 7.6 45.6
10:20 1025 30.27 854 25.22 21.8 71.3 39 7.3 45.1
10:25 1025 30.27 854 25.22 21.8 71.2 40 7.9 46.2
10:30 1025 30.27 854 25.22 22.1 71.8 38 7.3 45.2
10:35 1025 30.27 854 25.22 22.8 73 36 7.1 44.8
10:40 1025 30.27 854 25.22 22.9 73.3 35 6.7 44.1
10:45 1025 30.27 854 25.22 23.4 74 33 6.2 43.2
10:50 1025 30.27 854 25.22 23.9 75.1 32 6.6 43.9
10:55 1025 30.27 854 25.22 23.9 74.9 34 7.2 45
11:00 1025 30.27 854 25.22 23.6 74.4 34 6.8 44.3
11:05 1025 30.27 854 25.22 23.5 74.2 35 7.2 45
11:10 1025 30.27 854 25.22 23.1 73.5 35 6.9 44.5
11:15 1025 30.27 854 25.22 23 73.5 36 7.4 45.3
11:20 1025 30.27 854 25.22 23.2 73.7 34 6.8 44.3
11:25 1025 30.27 854 25.22 23 73.4 34 6.6 43.9
11:30 1025 30.27 854 25.22 23.3 74 34 6.7 44.1
11:35 1025 30.27 854 25.22 24.7 76.4 32 7.2 44.9
11:40 1025 30.27 854 25.22 23.6 74.5 35 7.6 45.6
11:45 1025 30.27 854 25.22 23.4 74.2 35 7.2 44.9
11:50 1025 30.27 854 25.22 24 75.2 33 6.8 44.2
11:55 1025 30.27 854 25.22 24.1 75.3 33 7.1 44.8
12:00 1025 30.27 854 25.22 23.9 75 33 6.8 44.2
12:05 1025 30.27 854 25.22 24.2 75.6 32 6.6 43.9
12:10 1025 30.27 854 25.22 24.1 75.3 33 6.9 44.4
12:15 1025 30.27 854 25.22 23.9 75 33 7 44.5
12:20 1025 30.27 854 25.22 24.5 76.2 30 6.3 43.3
12:25 1025 30.27 854 25.22 25.6 78 27 5.6 42.1
12:30 1025 30.27 854 25.22 26.3 79.3 30 7.5 45.4
12:35 1025 30.27 854 25.22 25.4 77.7 30 7 44.6
12:40 1025 30.27 854 25.22 25.5 77.9 29 6.6 43.8
12:45 1025 30.27 854 25.22 25.7 78.3 29 6.4 43.6
12:50 1025 30.27 854 25.22 26.4 79.5 26 5.4 41.7
12:55 1025 30.27 854 25.22 26.7 80.1 28 6.9 44.4
13:00 1025 30.27 854 25.22 26.6 79.8 26 5.5 42
13:05 1024 30.24 854 25.22 27.1 80.8 23 4.5 40.1
13:10 1024 30.24 854 25.22 27.8 82 22 4.3 39.8
13:15 1024 30.24 854 25.22 27.3 81.2 22 4 39.1
13:20 1024 30.24 854 25.22 27.8 82 22 4.6 40.2
13:25 1024 30.24 854 25.22 28.4 83.1 23 5.8 42.5
13:30 1024 30.24 854 25.22 27.6 81.7 21 3.9 38.9
13:35 1024 30.24 854 25.22 27.7 81.9 21 3.5 38.4
13:40 1024 30.24 854 25.22 28.1 82.6 20 3.5 38.4
13:45 1024 30.24 854 25.22 28.3 83 19 2.9 37.1
13:50 1024 30.24 853 25.19 28.8 83.8 20 3.7 38.7
13:55 1024 30.24 853 25.19 28.6 83.4 18 2.5 36.6
14:00 1024 30.24 853 25.19 28.9 84 18 2.6 36.8
14:05 1024 30.24 853 25.19 28.8 83.8 19 3 37.4
14:10 1024 30.24 853 25.19 29 84.3 18 2.8 37
14:15 1024 30.24 853 25.19 28.8 83.8 18 2.6 36.7
14:20 1024 30.24 853 25.19 28.3 82.9 19 2.5 36.5
14:25 1024 30.24 853 25.19 28.6 83.5 18 2.3 36.2
14:30 1024 30.24 853 25.19 28.9 84.1 17 2 35.6
14:35 1024 30.24 853 25.19 28.8 83.9 17 2 35.5
14:40 1024 30.24 853 25.19 28.5 83.3 18 2.3 36.1
14:45 1024 30.24 853 25.19 28.6 83.5 17 1.3 34.4
14:50 1024 30.24 853 25.19 29.2 84.5 16 1.5 34.8
14:55 1024 30.24 853 25.19 29.4 84.9 17 2.2 36
15:00 1024 30.24 853 25.19 29.4 84.8 16 0.9 33.6
15:05 1024 30.24 853 25.19 29.5 85 16 1.4 34.6
15:10 1024 30.24 853 25.19 29.6 85.4 16 1.3 34.4
15:15 1024 30.24 853 25.19 29.4 84.8 17 2.4 36.3
15:20 1023 30.21 853 25.19 29.2 84.5 15 0.4 32.7
15:25 1023 30.21 853 25.19 28.5 83.3 19 2.6 36.7
15:30 1023 30.21 853 25.19 28.1 82.6 17 1.4 34.5
15:35 1023 30.21 853 25.19 28.2 82.8 17 1.2 34.2
15:40 1023 30.21 852 25.16 28.5 83.2 17 1 33.8
15:45 1023 30.21 852 25.16 27.9 82.2 18 1.9 35.5
15:50 1023 30.21 852 25.16 28.1 82.5 16 0.3 32.5
15:55 1023 30.21 852 25.16 28.9 83.9 15 -0.2 31.6
16:00 1023 30.21 852 25.16 29.2 84.5 15 0.1 32.2
16:05 1023 30.21 852 25.16 28.7 83.7 16 0.9 33.6
16:10 1023 30.21 852 25.16 29.4 84.9 16 0.9 33.7
16:15 1023 30.21 852 25.16 28.9 84.1 17 1.4 34.5
16:20 1023 30.21 852 25.16 29 84.2 16 1.3 34.3
16:25 1023 30.21 852 25.16 28.7 83.7 17 1.4 34.5
16:30 1023 30.21 852 25.16 29.3 84.7 16 0.8 33.5
16:35 1023 30.21 852 25.16 28.3 83 18 1.8 35.2
16:40 1023 30.21 852 25.16 28 82.3 18 1.5 34.6
16:45 1023 30.21 852 25.16 28.5 83.3 17 1.2 34.1
16:50 1023 30.21 852 25.16 28 82.4 16 -0 31.9
16:55 1023 30.21 852 25.16 28.3 82.9 17 0.8 33.5
17:00 1023 30.21 852 25.16 28.7 83.6 17 1.9 35.3
17:05 1023 30.21 852 25.16 29.1 84.4 15 0.5 32.9
17:10 1023 30.21 852 25.16 29.4 85 15 0.8 33.4
17:15 1023 30.21 852 25.16 29.4 85 15 0.2 32.3
17:20 1022 30.18 852 25.16 28.9 84.1 15 0.2 32.4
17:25 1022 30.18 852 25.16 29 84.1 16 1 33.8
17:30 1022 30.18 852 25.16 28.5 83.2 17 1.6 34.8
17:35 1022 30.18 852 25.16 27.8 82 17 1 33.7
17:40 1022 30.18 852 25.16 27.9 82.1 18 1.4 34.4
17:45 1022 30.18 852 25.16 28 82.4 15 -0.3 31.4
17:50 1022 30.18 851 25.13 28.4 83.1 15 -0.5 31.1
17:55 1022 30.18 851 25.13 28.8 83.8 15 0.1 32.1
18:00 1022 30.18 851 25.13 29.1 84.4 15 0.3 32.6
18:05 1022 30.18 851 25.13 29.4 84.9 15 0.5 33
18:10 1022 30.18 851 25.13 28.8 83.9 18 2.8 37.1
18:15 1022 30.18 851 25.13 28.4 83.1 17 1.2 34.2
18:20 1022 30.18 851 25.13 28.4 83.1 16 0.7 33.2
18:25 1022 30.18 851 25.13 27.7 81.9 18 1.5 34.6
18:30 1022 30.18 851 25.13 27.4 81.3 18 1.6 35
18:35 1022 30.18 851 25.13 27.4 81.3 18 1.4 34.6
18:40 1022 30.18 851 25.13 27.2 81 18 1.5 34.7
18:45 1022 30.18 851 25.13 27.1 80.8 18 1.2 34.2
18:50 1022 30.18 851 25.13 27.1 80.8 19 1.5 34.6
18:55 1022 30.18 851 25.13 27 80.7 19 2 35.7
19:00 1022 30.18 851 25.13 27 80.6 19 1.9 35.4
19:05 1022 30.18 851 25.13 26.9 80.4 18 1.2 34.1
19:10 1022 30.18 851 25.13 26.8 80.3 19 1.3 34.4
19:15 1022 30.18 851 25.13 26.7 80.1 18 1 33.9
19:20 1022 30.18 851 25.13 26.7 80.1 20 2.3 36.1
19:25 1022 30.18 851 25.13 26.6 79.8 21 2.6 36.7
19:30 1022 30.18 851 25.13 26.5 79.6 20 2.2 35.9
19:35 1022 30.18 851 25.13 26.5 79.6 20 1.7 35.1
19:40 1022 30.18 851 25.13 26.4 79.5 23 3.6 38.5
19:45 1022 30.18 851 25.13 26.2 79.1 22 3.1 37.6
19:50 1022 30.18 851 25.13 25.9 78.5 29 6.8 44.2
19:55 1022 30.18 851 25.13 24.6 76.2 35 8.2 46.8
20:00 1022 30.18 851 25.13 23.3 74 35 7.3 45.2
20:05 1022 30.18 851 25.13 22.6 72.8 38 7.8 46
20:10 1022 30.18 851 25.13 22 71.5 41 8.1 46.6
20:15 1022 30.18 851 25.13 21.1 70 42 8 46.3
20:20 1022 30.18 851 25.13 20.8 69.4 39 6.6 44
20:25 1022 30.18 851 25.13 20.7 69.3 36 5.5 41.9
20:30 1022 30.18 851 25.13 20.9 69.6 32 3.8 38.9
20:35 1022 30.18 851 25.13 21.3 70.4 32 4.3 39.8
20:40 1022 30.18 851 25.13 20.8 69.4 37 5.7 42.2
20:45 1022 30.18 851 25.13 19.9 67.8 36 4.7 40.4
20:50 1022 30.18 851 25.13 19.8 67.6 34 3.6 38.5
20:55 1022 30.18 851 25.13 20 68 33 3.4 38.2
21:00 1022 30.18 851 25.13 20.2 68.4 33 3.6 38.6
21:05 1022 30.18 851 25.13 20.1 68.2 34 3.7 38.7
21:10 1022 30.18 851 25.13 19.8 67.7 34 3.8 38.8
21:15 1022 30.18 851 25.13 19.6 67.3 34 3.7 38.6
21:20 1022 30.18 851 25.13 19.4 67 35 3.9 39
21:25 1022 30.18 851 25.13 19.2 66.5 36 4 39.3
21:30 1022 30.18 851 25.13 18.9 66 37 4.1 39.4
21:35 1022 30.18 852 25.16 18.8 65.8 38 4.3 39.8
21:40 1022 30.18 852 25.16 18.6 65.5 38 4 39.2
21:45 1022 30.18 852 25.16 18.5 65.4 37 3.6 38.5
21:50 1022 30.18 852 25.16 18.7 65.6 37 3.7 38.6
21:55 1022 30.18 852 25.16 18.7 65.6 37 3.8 38.8
22:00 1022 30.18 852 25.16 18.6 65.5 37 3.8 38.8
22:05 1022 30.18 852 25.16 18.5 65.3 38 3.9 39
22:10 1022 30.18 852 25.16 18.4 65.1 38 4 39.2
22:15 1022 30.18 852 25.16 18.2 64.8 39 4.3 39.8
22:20 1022 30.18 852 25.16 18.1 64.6 39 4.1 39.4
22:25 1022 30.18 852 25.16 18 64.5 38 3.7 38.6
22:30 1022 30.18 852 25.16 18.2 64.8 38 4 39.2
22:35 1022 30.18 852 25.16 18.1 64.6 40 4.3 39.7
22:40 1023 30.21 852 25.16 18 64.5 42 5 40.9
22:45 1023 30.21 852 25.16 18 64.4 41 4.5 40.2
22:50 1023 30.21 852 25.16 17.7 63.9 39 3.6 38.5
22:55 1023 30.21 852 25.16 18 64.3 36 2.9 37.2
23:00 1023 30.21 852 25.16 18.3 64.9 36 2.9 37.3
23:05 1023 30.21 852 25.16 18.4 65 36 3.1 37.6
23:10 1023 30.21 852 25.16 18.2 64.7 36 3 37.5
23:15 1022 30.18 852 25.16 18.1 64.6 36 2.9 37.1
23:20 1022 30.18 852 25.16 18.1 64.5 36 2.8 37.1
23:25 1022 30.18 852 25.16 18.1 64.6 36 2.9 37.2
23:30 1022 30.18 852 25.16 18.2 64.7 37 3.4 38.1
23:35 1022 30.18 852 25.16 18.1 64.5 36 2.8 37
23:40 1022 30.18 852 25.16 18 64.5 35 2.6 36.7
23:45 1022 30.18 852 25.16 18.1 64.5 37 3.1 37.6
23:50 1022 30.18 852 25.16 18 64.4 36 2.7 36.9
23:55 1022 30.18 852 25.16 17.9 64.2 40 4.2 39.6
24:00 1022 30.18 852 25.16 17.9 64.1 36 2.8 37.1